sensor_id;sensor_type;location;lat;lon;timestamp;temperature;humidity
10276;DHT22;5183;51.190;6.820;2023-02-26T00:00:14;0.10;53.70
10276;DHT22;5183;51.190;6.820;2023-02-26T00:02:42;0.10;1.00
10276;DHT22;5183;51.190;6.820;2023-02-26T00:05:10;0.00;99.90
10276;DHT22;5183;51.190;6.820;2023-02-26T00:07:38;0.00;1.00
10276;DHT22;5183;51.190;6.820;2023-02-26T00:10:06;0.10;1.00
10276;DHT22;5183;51.190;6.820;2023-02-26T00:12:34;0.20;3.30
10276;DHT22;5183;51.190;6.820;2023-02-26T00:15:01;0.20;1.00
10276;DHT22;5183;51.190;6.820;2023-02-26T00:17:38;0.10;1.00
10276;DHT22;5183;51.190;6.820;2023-02-26T00:20:10;0.10;99.90
10276;DHT22;5183;51.190;6.820;2023-02-26T00:22:38;0.00;1.00
10276;DHT22;5183;51.190;6.820;2023-02-26T00:25:06;0.10;99.90
10276;DHT22;5183;51.190;6.820;2023-02-26T00:27:33;0.10;99.90
10276;DHT22;5183;51.190;6.820;2023-02-26T00:30:01;0.10;1.00
10276;DHT22;5183;51.190;6.820;2023-02-26T00:32:28;0.00;66.00
10276;DHT22;5183;51.190;6.820;2023-02-26T00:34:56;0.10;1.00
10276;DHT22;5183;51.190;6.820;2023-02-26T00:37:34;0.00;1.00
10276;DHT22;5183;51.190;6.820;2023-02-26T00:40:13;0.10;99.90
10276;DHT22;5183;51.190;6.820;2023-02-26T00:42:41;0.10;1.00
10276;DHT22;5183;51.190;6.820;2023-02-26T00:45:09;0.20;99.90
10276;DHT22;5183;51.190;6.820;2023-02-26T00:47:43;0.10;99.90
10276;DHT22;5183;51.190;6.820;2023-02-26T00:50:17;0.20;1.00
10276;DHT22;5183;51.190;6.820;2023-02-26T00:52:52;0.20;99.90
10276;DHT22;5183;51.190;6.820;2023-02-26T00:55:23;0.40;99.90
10276;DHT22;5183;51.190;6.820;2023-02-26T00:57:50;0.30;1.00
10276;DHT22;5183;51.190;6.820;2023-02-26T01:00:18;0.30;1.00
10276;DHT22;5183;51.190;6.820;2023-02-26T01:02:46;0.30;1.00
10276;DHT22;5183;51.190;6.820;2023-02-26T01:05:14;0.40;1.00
10276;DHT22;5183;51.190;6.820;2023-02-26T01:07:44;0.40;1.00
10276;DHT22;5183;51.190;6.820;2023-02-26T01:10:14;0.30;1.00
10276;DHT22;5183;51.190;6.820;2023-02-26T01:12:42;0.30;1.00
10276;DHT22;5183;51.190;6.820;2023-02-26T01:15:10;0.30;1.00
10276;DHT22;5183;51.190;6.820;2023-02-26T01:17:42;0.40;99.90
10276;DHT22;5183;51.190;6.820;2023-02-26T01:20:16;0.30;1.00
10276;DHT22;5183;51.190;6.820;2023-02-26T01:22:49;0.30;1.00
10276;DHT22;5183;51.190;6.820;2023-02-26T01:25:23;0.20;99.90
10276;DHT22;5183;51.190;6.820;2023-02-26T01:27:51;0.30;99.90
10276;DHT22;5183;51.190;6.820;2023-02-26T01:30:19;0.30;99.90
10276;DHT22;5183;51.190;6.820;2023-02-26T01:32:50;0.30;99.90
10276;DHT22;5183;51.190;6.820;2023-02-26T01:35:35;0.30;99.90
10276;DHT22;5183;51.190;6.820;2023-02-26T01:38:06;0.40;1.00
10276;DHT22;5183;51.190;6.820;2023-02-26T01:43:50;0.40;99.90
10276;DHT22;5183;51.190;6.820;2023-02-26T01:46:27;0.30;1.00
10276;DHT22;5183;51.190;6.820;2023-02-26T01:48:57;0.30;1.00
10276;DHT22;5183;51.190;6.820;2023-02-26T01:51:48;0.30;1.00
10276;DHT22;5183;51.190;6.820;2023-02-26T01:54:17;0.30;99.90
10276;DHT22;5183;51.190;6.820;2023-02-26T01:56:47;0.20;99.90
10276;DHT22;5183;51.190;6.820;2023-02-26T01:59:17;0.40;1.00
10276;DHT22;5183;51.190;6.820;2023-02-26T02:01:49;0.20;99.90
10276;DHT22;5183;51.190;6.820;2023-02-26T02:04:16;0.20;1.00
10276;DHT22;5183;51.190;6.820;2023-02-26T02:06:43;0.20;1.00
10276;DHT22;5183;51.190;6.820;2023-02-26T02:09:11;0.30;99.90
10276;DHT22;5183;51.190;6.820;2023-02-26T02:11:49;0.20;92.30
10276;DHT22;5183;51.190;6.820;2023-02-26T02:14:26;0.20;99.90
10276;DHT22;5183;51.190;6.820;2023-02-26T02:17:01;0.10;56.00
10276;DHT22;5183;51.190;6.820;2023-02-26T02:19:43;0.00;20.10
10276;DHT22;5183;51.190;6.820;2023-02-26T02:25:25;-0.10;99.90
10276;DHT22;5183;51.190;6.820;2023-02-26T02:28:01;-0.10;1.00
10276;DHT22;5183;51.190;6.820;2023-02-26T02:30:36;-0.20;1.00
10276;DHT22;5183;51.190;6.820;2023-02-26T02:33:10;-0.10;1.00
10276;DHT22;5183;51.190;6.820;2023-02-26T02:35:41;-0.20;1.00
10276;DHT22;5183;51.190;6.820;2023-02-26T02:38:15;-0.10;1.00
10276;DHT22;5183;51.190;6.820;2023-02-26T02:40:44;-0.20;1.00
10276;DHT22;5183;51.190;6.820;2023-02-26T02:43:14;-0.20;1.00
10276;DHT22;5183;51.190;6.820;2023-02-26T02:45:44;-0.20;1.00
10276;DHT22;5183;51.190;6.820;2023-02-26T02:48:16;-0.30;1.00
10276;DHT22;5183;51.190;6.820;2023-02-26T02:50:47;-0.40;1.00
10276;DHT22;5183;51.190;6.820;2023-02-26T02:53:18;-0.40;1.00
10276;DHT22;5183;51.190;6.820;2023-02-26T02:55:49;-0.40;1.00
10276;DHT22;5183;51.190;6.820;2023-02-26T02:58:22;-0.30;1.00
10276;DHT22;5183;51.190;6.820;2023-02-26T03:00:53;-0.40;1.00
10276;DHT22;5183;51.190;6.820;2023-02-26T03:03:27;-0.50;1.00
10276;DHT22;5183;51.190;6.820;2023-02-26T03:05:56;-0.50;1.00
10276;DHT22;5183;51.190;6.820;2023-02-26T03:08:26;-0.60;1.00
10276;DHT22;5183;51.190;6.820;2023-02-26T03:10:53;-0.60;1.00
10276;DHT22;5183;51.190;6.820;2023-02-26T03:13:22;-0.60;1.00
10276;DHT22;5183;51.190;6.820;2023-02-26T03:15:59;-0.60;1.00
10276;DHT22;5183;51.190;6.820;2023-02-26T03:18:42;-0.60;1.00
10276;DHT22;5183;51.190;6.820;2023-02-26T03:21:17;-0.60;1.00
10276;DHT22;5183;51.190;6.820;2023-02-26T03:23:49;-0.70;1.00
10276;DHT22;5183;51.190;6.820;2023-02-26T03:26:26;-0.80;1.00
10276;DHT22;5183;51.190;6.820;2023-02-26T03:29:00;-0.80;1.00
10276;DHT22;5183;51.190;6.820;2023-02-26T03:31:30;-0.80;1.00
10276;DHT22;5183;51.190;6.820;2023-02-26T03:34:03;-0.80;1.00
10276;DHT22;5183;51.190;6.820;2023-02-26T03:36:35;-0.80;1.00
10276;DHT22;5183;51.190;6.820;2023-02-26T03:39:06;-0.70;1.00
10276;DHT22;5183;51.190;6.820;2023-02-26T03:41:38;-0.70;1.00
10276;DHT22;5183;51.190;6.820;2023-02-26T03:44:10;-0.70;1.00
10276;DHT22;5183;51.190;6.820;2023-02-26T03:46:41;-0.80;1.00
10276;DHT22;5183;51.190;6.820;2023-02-26T03:49:16;-0.70;1.00
10276;DHT22;5183;51.190;6.820;2023-02-26T03:51:45;-0.80;1.00
10276;DHT22;5183;51.190;6.820;2023-02-26T03:54:15;-0.80;1.00
10276;DHT22;5183;51.190;6.820;2023-02-26T03:56:46;-0.70;1.00
10276;DHT22;5183;51.190;6.820;2023-02-26T03:59:14;-0.70;1.00
10276;DHT22;5183;51.190;6.820;2023-02-26T04:01:45;-0.70;1.00
10276;DHT22;5183;51.190;6.820;2023-02-26T04:04:18;-0.80;1.00
10276;DHT22;5183;51.190;6.820;2023-02-26T04:06:47;-0.80;1.00
10276;DHT22;5183;51.190;6.820;2023-02-26T04:09:18;-0.80;1.00
10276;DHT22;5183;51.190;6.820;2023-02-26T04:11:46;-0.90;1.00
10276;DHT22;5183;51.190;6.820;2023-02-26T04:14:14;-0.90;1.00
10276;DHT22;5183;51.190;6.820;2023-02-26T04:16:41;-0.90;1.00
10276;DHT22;5183;51.190;6.820;2023-02-26T04:19:08;-1.00;1.00
10276;DHT22;5183;51.190;6.820;2023-02-26T04:21:36;-1.00;1.00
10276;DHT22;5183;51.190;6.820;2023-02-26T04:24:03;-1.10;1.00
10276;DHT22;5183;51.190;6.820;2023-02-26T04:26:30;-1.10;1.00
10276;DHT22;5183;51.190;6.820;2023-02-26T04:28:57;-1.10;1.00
10276;DHT22;5183;51.190;6.820;2023-02-26T04:31:24;-1.10;1.00
10276;DHT22;5183;51.190;6.820;2023-02-26T04:33:51;-1.10;1.00
10276;DHT22;5183;51.190;6.820;2023-02-26T04:36:18;-1.10;1.00
10276;DHT22;5183;51.190;6.820;2023-02-26T04:38:46;-1.10;1.00
10276;DHT22;5183;51.190;6.820;2023-02-26T04:41:13;-1.00;1.00
10276;DHT22;5183;51.190;6.820;2023-02-26T04:43:39;-1.10;1.00
10276;DHT22;5183;51.190;6.820;2023-02-26T04:46:06;-1.10;1.00
10276;DHT22;5183;51.190;6.820;2023-02-26T04:48:33;-1.10;1.00
10276;DHT22;5183;51.190;6.820;2023-02-26T04:51:00;-1.10;1.00
10276;DHT22;5183;51.190;6.820;2023-02-26T04:53:27;-1.10;1.00
10276;DHT22;5183;51.190;6.820;2023-02-26T04:55:55;-1.10;1.00
10276;DHT22;5183;51.190;6.820;2023-02-26T04:58:22;-1.20;3.70
10276;DHT22;5183;51.190;6.820;2023-02-26T05:00:49;-1.20;6.10
10276;DHT22;5183;51.190;6.820;2023-02-26T05:03:17;-1.10;1.60
10276;DHT22;5183;51.190;6.820;2023-02-26T05:05:44;-1.20;3.30
10276;DHT22;5183;51.190;6.820;2023-02-26T05:08:11;-1.20;6.50
10276;DHT22;5183;51.190;6.820;2023-02-26T05:10:38;-1.20;11.40
10276;DHT22;5183;51.190;6.820;2023-02-26T05:13:06;-1.20;5.80
10276;DHT22;5183;51.190;6.820;2023-02-26T05:15:33;-1.20;6.40
10276;DHT22;5183;51.190;6.820;2023-02-26T05:18:00;-1.20;9.70
10276;DHT22;5183;51.190;6.820;2023-02-26T05:20:27;-1.30;8.90
10276;DHT22;5183;51.190;6.820;2023-02-26T05:22:54;-1.30;12.20
10276;DHT22;5183;51.190;6.820;2023-02-26T05:25:21;-1.30;11.10
10276;DHT22;5183;51.190;6.820;2023-02-26T05:27:48;-1.30;6.50
10276;DHT22;5183;51.190;6.820;2023-02-26T05:30:16;-1.40;4.70
10276;DHT22;5183;51.190;6.820;2023-02-26T05:32:43;-1.30;3.70
10276;DHT22;5183;51.190;6.820;2023-02-26T05:35:10;-1.40;1.00
10276;DHT22;5183;51.190;6.820;2023-02-26T05:37:38;-1.40;1.00
10276;DHT22;5183;51.190;6.820;2023-02-26T05:40:07;-1.40;1.30
10276;DHT22;5183;51.190;6.820;2023-02-26T05:42:35;-1.50;1.00
10276;DHT22;5183;51.190;6.820;2023-02-26T05:45:02;-1.40;1.00
10276;DHT22;5183;51.190;6.820;2023-02-26T05:47:32;-1.50;1.00
10276;DHT22;5183;51.190;6.820;2023-02-26T05:49:59;-1.60;4.30
10276;DHT22;5183;51.190;6.820;2023-02-26T05:52:26;-1.60;10.80
10276;DHT22;5183;51.190;6.820;2023-02-26T05:54:53;-1.60;11.10
10276;DHT22;5183;51.190;6.820;2023-02-26T05:57:20;-1.70;9.40
10276;DHT22;5183;51.190;6.820;2023-02-26T05:59:47;-1.60;8.60
10276;DHT22;5183;51.190;6.820;2023-02-26T06:02:14;-1.60;2.70
10276;DHT22;5183;51.190;6.820;2023-02-26T06:04:42;-1.60;1.00
10276;DHT22;5183;51.190;6.820;2023-02-26T06:07:11;-1.70;5.00
10276;DHT22;5183;51.190;6.820;2023-02-26T06:09:38;-1.70;1.00
10276;DHT22;5183;51.190;6.820;2023-02-26T06:12:05;-1.70;3.20
10276;DHT22;5183;51.190;6.820;2023-02-26T06:14:32;-1.70;1.00
10276;DHT22;5183;51.190;6.820;2023-02-26T06:16:59;-1.60;1.00
10276;DHT22;5183;51.190;6.820;2023-02-26T06:19:25;-1.70;1.00
10276;DHT22;5183;51.190;6.820;2023-02-26T06:21:53;-1.70;1.00
10276;DHT22;5183;51.190;6.820;2023-02-26T06:24:20;-1.70;1.00
10276;DHT22;5183;51.190;6.820;2023-02-26T06:26:47;-1.80;1.00
10276;DHT22;5183;51.190;6.820;2023-02-26T06:29:14;-1.80;1.00
10276;DHT22;5183;51.190;6.820;2023-02-26T06:31:42;-1.70;1.00
10276;DHT22;5183;51.190;6.820;2023-02-26T06:34:09;-1.70;1.00
10276;DHT22;5183;51.190;6.820;2023-02-26T06:36:36;-1.70;1.00
10276;DHT22;5183;51.190;6.820;2023-02-26T06:39:05;-1.70;1.00
10276;DHT22;5183;51.190;6.820;2023-02-26T06:41:33;-1.70;1.00
10276;DHT22;5183;51.190;6.820;2023-02-26T06:43:59;-1.60;1.00
10276;DHT22;5183;51.190;6.820;2023-02-26T06:46:26;-1.70;1.00
10276;DHT22;5183;51.190;6.820;2023-02-26T06:48:55;-1.60;1.00
10276;DHT22;5183;51.190;6.820;2023-02-26T06:51:22;-1.70;1.00
10276;DHT22;5183;51.190;6.820;2023-02-26T06:53:49;-1.60;1.00
10276;DHT22;5183;51.190;6.820;2023-02-26T06:56:17;-1.70;1.00
10276;DHT22;5183;51.190;6.820;2023-02-26T06:58:44;-1.70;1.00
10276;DHT22;5183;51.190;6.820;2023-02-26T07:01:11;-1.60;1.00
10276;DHT22;5183;51.190;6.820;2023-02-26T07:03:38;-1.60;1.00
10276;DHT22;5183;51.190;6.820;2023-02-26T07:06:06;-1.50;1.00
10276;DHT22;5183;51.190;6.820;2023-02-26T07:08:33;-1.40;1.00
10276;DHT22;5183;51.190;6.820;2023-02-26T07:11:00;-1.40;1.00
10276;DHT22;5183;51.190;6.820;2023-02-26T07:13:28;-1.30;1.00
10276;DHT22;5183;51.190;6.820;2023-02-26T07:15:55;-1.30;1.00
10276;DHT22;5183;51.190;6.820;2023-02-26T07:18:22;-1.30;1.00
10276;DHT22;5183;51.190;6.820;2023-02-26T07:20:49;-1.20;1.00
10276;DHT22;5183;51.190;6.820;2023-02-26T07:23:16;-1.20;1.00
10276;DHT22;5183;51.190;6.820;2023-02-26T07:25:43;-1.20;1.00
10276;DHT22;5183;51.190;6.820;2023-02-26T07:28:10;-1.20;1.00
10276;DHT22;5183;51.190;6.820;2023-02-26T07:30:38;-1.20;1.00
10276;DHT22;5183;51.190;6.820;2023-02-26T07:33:06;-1.10;1.00
10276;DHT22;5183;51.190;6.820;2023-02-26T07:35:34;-1.10;1.00
10276;DHT22;5183;51.190;6.820;2023-02-26T07:38:01;-1.10;1.00
10276;DHT22;5183;51.190;6.820;2023-02-26T07:40:28;-1.00;1.00
10276;DHT22;5183;51.190;6.820;2023-02-26T07:42:55;-1.00;1.00
10276;DHT22;5183;51.190;6.820;2023-02-26T07:45:22;-1.00;1.00
10276;DHT22;5183;51.190;6.820;2023-02-26T07:47:51;-1.00;1.00
10276;DHT22;5183;51.190;6.820;2023-02-26T07:50:19;-0.90;1.00
10276;DHT22;5183;51.190;6.820;2023-02-26T07:52:50;-0.90;1.00
10276;DHT22;5183;51.190;6.820;2023-02-26T07:55:17;-0.90;1.00
10276;DHT22;5183;51.190;6.820;2023-02-26T07:57:44;-0.80;1.00
10276;DHT22;5183;51.190;6.820;2023-02-26T08:00:12;-0.70;1.00
10276;DHT22;5183;51.190;6.820;2023-02-26T08:02:39;-0.70;1.00
10276;DHT22;5183;51.190;6.820;2023-02-26T08:05:08;-0.60;1.00
10276;DHT22;5183;51.190;6.820;2023-02-26T08:07:35;-0.60;1.00
10276;DHT22;5183;51.190;6.820;2023-02-26T08:10:03;-0.60;1.00
10276;DHT22;5183;51.190;6.820;2023-02-26T08:12:32;-0.50;1.00
10276;DHT22;5183;51.190;6.820;2023-02-26T08:14:59;-0.50;1.00
10276;DHT22;5183;51.190;6.820;2023-02-26T08:17:26;-0.50;1.00
10276;DHT22;5183;51.190;6.820;2023-02-26T08:19:53;-0.50;1.00
10276;DHT22;5183;51.190;6.820;2023-02-26T08:22:21;-0.40;1.00
10276;DHT22;5183;51.190;6.820;2023-02-26T08:24:48;-0.30;1.00
10276;DHT22;5183;51.190;6.820;2023-02-26T08:27:16;-0.20;1.00
10276;DHT22;5183;51.190;6.820;2023-02-26T08:29:42;0.00;1.00
10276;DHT22;5183;51.190;6.820;2023-02-26T08:32:10;0.10;1.00
10276;DHT22;5183;51.190;6.820;2023-02-26T08:34:37;0.10;1.00
10276;DHT22;5183;51.190;6.820;2023-02-26T08:37:04;0.10;1.00
10276;DHT22;5183;51.190;6.820;2023-02-26T08:39:41;0.20;1.00
10276;DHT22;5183;51.190;6.820;2023-02-26T08:42:08;0.20;1.00
10276;DHT22;5183;51.190;6.820;2023-02-26T08:44:36;0.20;1.00
10276;DHT22;5183;51.190;6.820;2023-02-26T08:47:03;0.20;1.00
10276;DHT22;5183;51.190;6.820;2023-02-26T08:49:30;0.20;1.00
10276;DHT22;5183;51.190;6.820;2023-02-26T08:51:57;0.20;1.00
10276;DHT22;5183;51.190;6.820;2023-02-26T08:54:24;0.30;1.00
10276;DHT22;5183;51.190;6.820;2023-02-26T08:56:52;0.30;1.00
10276;DHT22;5183;51.190;6.820;2023-02-26T08:59:20;0.30;1.00
10276;DHT22;5183;51.190;6.820;2023-02-26T09:01:47;0.40;1.00
10276;DHT22;5183;51.190;6.820;2023-02-26T09:04:14;0.30;1.00
10276;DHT22;5183;51.190;6.820;2023-02-26T09:06:41;0.30;1.00
10276;DHT22;5183;51.190;6.820;2023-02-26T09:09:08;0.40;1.00
10276;DHT22;5183;51.190;6.820;2023-02-26T09:11:35;0.50;1.00
10276;DHT22;5183;51.190;6.820;2023-02-26T09:14:04;0.60;1.00
10276;DHT22;5183;51.190;6.820;2023-02-26T09:16:31;0.60;1.00
10276;DHT22;5183;51.190;6.820;2023-02-26T09:19:00;0.70;1.00
10276;DHT22;5183;51.190;6.820;2023-02-26T09:21:27;0.80;1.00
10276;DHT22;5183;51.190;6.820;2023-02-26T09:23:53;0.80;1.00
10276;DHT22;5183;51.190;6.820;2023-02-26T09:26:21;0.80;1.00
10276;DHT22;5183;51.190;6.820;2023-02-26T09:28:48;0.90;1.00
10276;DHT22;5183;51.190;6.820;2023-02-26T09:31:16;0.90;1.00
10276;DHT22;5183;51.190;6.820;2023-02-26T09:33:43;0.90;1.00
10276;DHT22;5183;51.190;6.820;2023-02-26T09:36:10;0.90;1.00
10276;DHT22;5183;51.190;6.820;2023-02-26T09:38:37;0.90;1.00
10276;DHT22;5183;51.190;6.820;2023-02-26T09:41:06;1.00;1.00
10276;DHT22;5183;51.190;6.820;2023-02-26T09:46:34;1.20;1.00
10276;DHT22;5183;51.190;6.820;2023-02-26T09:49:14;1.30;1.00
10276;DHT22;5183;51.190;6.820;2023-02-26T09:51:42;1.40;1.00
10276;DHT22;5183;51.190;6.820;2023-02-26T09:54:15;1.40;1.00
10276;DHT22;5183;51.190;6.820;2023-02-26T09:56:43;1.60;1.00
10276;DHT22;5183;51.190;6.820;2023-02-26T09:59:11;1.60;1.00
10276;DHT22;5183;51.190;6.820;2023-02-26T10:01:43;1.70;1.00
10276;DHT22;5183;51.190;6.820;2023-02-26T10:04:19;1.80;1.00
10276;DHT22;5183;51.190;6.820;2023-02-26T10:06:58;1.90;1.00
10276;DHT22;5183;51.190;6.820;2023-02-26T10:09:42;2.10;1.00
10276;DHT22;5183;51.190;6.820;2023-02-26T10:12:16;2.10;1.00
10276;DHT22;5183;51.190;6.820;2023-02-26T10:14:48;2.10;1.00
10276;DHT22;5183;51.190;6.820;2023-02-26T10:17:21;2.20;1.00
10276;DHT22;5183;51.190;6.820;2023-02-26T10:19:52;2.30;1.00
10276;DHT22;5183;51.190;6.820;2023-02-26T10:22:24;2.40;1.00
10276;DHT22;5183;51.190;6.820;2023-02-26T10:24:57;2.40;1.00
10276;DHT22;5183;51.190;6.820;2023-02-26T10:27:39;2.50;1.00
10276;DHT22;5183;51.190;6.820;2023-02-26T10:32:53;2.60;1.00
10276;DHT22;5183;51.190;6.820;2023-02-26T10:35:22;2.50;1.00
10276;DHT22;5183;51.190;6.820;2023-02-26T10:37:52;2.60;1.00
10276;DHT22;5183;51.190;6.820;2023-02-26T10:40:25;2.70;1.00
10276;DHT22;5183;51.190;6.820;2023-02-26T10:42:57;2.80;1.00
10276;DHT22;5183;51.190;6.820;2023-02-26T10:45:36;2.90;1.00
10276;DHT22;5183;51.190;6.820;2023-02-26T10:48:19;2.90;1.00
10276;DHT22;5183;51.190;6.820;2023-02-26T10:50:51;2.90;1.00
10276;DHT22;5183;51.190;6.820;2023-02-26T10:53:19;2.90;1.00
10276;DHT22;5183;51.190;6.820;2023-02-26T10:55:50;3.10;1.00
10276;DHT22;5183;51.190;6.820;2023-02-26T10:58:22;3.20;1.00
10276;DHT22;5183;51.190;6.820;2023-02-26T11:00:51;3.20;1.00
10276;DHT22;5183;51.190;6.820;2023-02-26T11:03:22;3.20;1.00
10276;DHT22;5183;51.190;6.820;2023-02-26T11:05:52;3.40;1.00
10276;DHT22;5183;51.190;6.820;2023-02-26T11:08:23;3.50;1.00
10276;DHT22;5183;51.190;6.820;2023-02-26T11:10:53;3.60;1.00
10276;DHT22;5183;51.190;6.820;2023-02-26T11:13:21;3.70;1.00
10276;DHT22;5183;51.190;6.820;2023-02-26T11:15:50;3.80;1.00
10276;DHT22;5183;51.190;6.820;2023-02-26T11:18:22;3.70;1.00
10276;DHT22;5183;51.190;6.820;2023-02-26T11:20:53;3.80;1.00
10276;DHT22;5183;51.190;6.820;2023-02-26T11:23:21;4.00;1.00
10276;DHT22;5183;51.190;6.820;2023-02-26T11:25:53;4.00;1.00
10276;DHT22;5183;51.190;6.820;2023-02-26T11:28:22;4.00;1.00
10276;DHT22;5183;51.190;6.820;2023-02-26T11:30:51;4.00;1.00
10276;DHT22;5183;51.190;6.820;2023-02-26T11:33:24;4.20;1.00
10276;DHT22;5183;51.190;6.820;2023-02-26T11:35:56;4.20;1.00
10276;DHT22;5183;51.190;6.820;2023-02-26T11:38:25;4.30;1.00
10276;DHT22;5183;51.190;6.820;2023-02-26T11:40:54;4.40;1.00
10276;DHT22;5183;51.190;6.820;2023-02-26T11:43:23;4.40;1.00
10276;DHT22;5183;51.190;6.820;2023-02-26T11:45:54;4.60;1.00
10276;DHT22;5183;51.190;6.820;2023-02-26T11:48:27;4.70;1.00
10276;DHT22;5183;51.190;6.820;2023-02-26T11:51:00;4.60;1.00
10276;DHT22;5183;51.190;6.820;2023-02-26T11:53:33;4.60;1.00
10276;DHT22;5183;51.190;6.820;2023-02-26T11:56:02;4.60;1.00
10276;DHT22;5183;51.190;6.820;2023-02-26T11:58:35;4.50;1.00
10276;DHT22;5183;51.190;6.820;2023-02-26T12:01:05;4.50;1.00
10276;DHT22;5183;51.190;6.820;2023-02-26T12:03:35;4.50;1.00
10276;DHT22;5183;51.190;6.820;2023-02-26T12:06:04;4.70;1.00
10276;DHT22;5183;51.190;6.820;2023-02-26T12:08:35;4.90;1.00
10276;DHT22;5183;51.190;6.820;2023-02-26T12:11:14;5.10;1.00
10276;DHT22;5183;51.190;6.820;2023-02-26T12:13:56;5.20;1.00
10276;DHT22;5183;51.190;6.820;2023-02-26T12:16:33;5.10;1.00
10276;DHT22;5183;51.190;6.820;2023-02-26T12:19:14;5.10;1.00
10276;DHT22;5183;51.190;6.820;2023-02-26T12:22:02;5.20;1.00
10276;DHT22;5183;51.190;6.820;2023-02-26T12:24:45;5.20;1.00
10276;DHT22;5183;51.190;6.820;2023-02-26T12:27:20;5.40;1.00
10276;DHT22;5183;51.190;6.820;2023-02-26T12:30:03;5.50;1.00
10276;DHT22;5183;51.190;6.820;2023-02-26T12:33:09;5.50;1.00
10276;DHT22;5183;51.190;6.820;2023-02-26T12:35:49;5.60;1.00
10276;DHT22;5183;51.190;6.820;2023-02-26T12:38:24;5.50;1.00
10276;DHT22;5183;51.190;6.820;2023-02-26T12:41:17;5.50;1.00
10276;DHT22;5183;51.190;6.820;2023-02-26T12:43:48;5.40;1.00
10276;DHT22;5183;51.190;6.820;2023-02-26T12:46:25;5.50;1.00
10276;DHT22;5183;51.190;6.820;2023-02-26T12:51:55;5.70;1.00
10276;DHT22;5183;51.190;6.820;2023-02-26T12:57:57;5.80;1.00
10276;DHT22;5183;51.190;6.820;2023-02-26T13:00:51;5.70;1.00
10276;DHT22;5183;51.190;6.820;2023-02-26T13:03:43;5.80;1.00
10276;DHT22;5183;51.190;6.820;2023-02-26T13:06:53;5.80;1.00
10276;DHT22;5183;51.190;6.820;2023-02-26T13:09:32;6.00;1.00
10276;DHT22;5183;51.190;6.820;2023-02-26T13:12:15;6.00;1.00
10276;DHT22;5183;51.190;6.820;2023-02-26T13:14:51;6.10;1.00
10276;DHT22;5183;51.190;6.820;2023-02-26T13:17:26;6.00;1.00
10276;DHT22;5183;51.190;6.820;2023-02-26T13:19:56;6.10;1.00
10276;DHT22;5183;51.190;6.820;2023-02-26T13:22:29;6.20;1.00
10276;DHT22;5183;51.190;6.820;2023-02-26T13:25:00;6.20;1.00
10276;DHT22;5183;51.190;6.820;2023-02-26T13:27:30;6.20;1.00
10276;DHT22;5183;51.190;6.820;2023-02-26T13:30:05;6.20;1.00
10276;DHT22;5183;51.190;6.820;2023-02-26T13:32:36;6.30;1.00
10276;DHT22;5183;51.190;6.820;2023-02-26T13:35:18;6.30;1.00
10276;DHT22;5183;51.190;6.820;2023-02-26T13:37:50;6.40;1.00
10276;DHT22;5183;51.190;6.820;2023-02-26T13:40:46;6.40;1.00
10276;DHT22;5183;51.190;6.820;2023-02-26T13:43:33;6.30;1.00
10276;DHT22;5183;51.190;6.820;2023-02-26T13:46:25;6.40;1.00
10276;DHT22;5183;51.190;6.820;2023-02-26T13:48:59;6.50;1.00
10276;DHT22;5183;51.190;6.820;2023-02-26T13:51:33;6.40;1.00
10276;DHT22;5183;51.190;6.820;2023-02-26T13:54:06;6.40;1.00
10276;DHT22;5183;51.190;6.820;2023-02-26T13:56:53;6.50;1.00
10276;DHT22;5183;51.190;6.820;2023-02-26T13:59:35;6.70;1.00
10276;DHT22;5183;51.190;6.820;2023-02-26T14:05:35;6.70;1.00
10276;DHT22;5183;51.190;6.820;2023-02-26T14:11:42;6.80;1.00
10276;DHT22;5183;51.190;6.820;2023-02-26T14:14:23;6.90;1.00
10276;DHT22;5183;51.190;6.820;2023-02-26T14:20:17;7.00;1.00
10276;DHT22;5183;51.190;6.820;2023-02-26T14:22:48;7.10;1.00
10276;DHT22;5183;51.190;6.820;2023-02-26T14:25:19;6.80;1.00
10276;DHT22;5183;51.190;6.820;2023-02-26T14:27:49;6.80;1.00
10276;DHT22;5183;51.190;6.820;2023-02-26T14:30:26;6.70;1.00
10276;DHT22;5183;51.190;6.820;2023-02-26T14:33:05;6.80;1.00
10276;DHT22;5183;51.190;6.820;2023-02-26T14:35:37;6.70;1.00
10276;DHT22;5183;51.190;6.820;2023-02-26T14:38:10;6.70;1.00
10276;DHT22;5183;51.190;6.820;2023-02-26T14:40:41;6.90;1.00
10276;DHT22;5183;51.190;6.820;2023-02-26T14:43:15;7.10;1.00
10276;DHT22;5183;51.190;6.820;2023-02-26T14:45:44;7.20;1.00
10276;DHT22;5183;51.190;6.820;2023-02-26T14:48:13;7.40;1.00
10276;DHT22;5183;51.190;6.820;2023-02-26T14:53:53;7.30;1.00
10276;DHT22;5183;51.190;6.820;2023-02-26T14:56:28;7.30;1.00
10276;DHT22;5183;51.190;6.820;2023-02-26T14:59:19;7.20;1.00
10276;DHT22;5183;51.190;6.820;2023-02-26T15:01:49;7.10;1.00
10276;DHT22;5183;51.190;6.820;2023-02-26T15:04:40;7.10;1.00
10276;DHT22;5183;51.190;6.820;2023-02-26T15:07:28;7.20;1.00
10276;DHT22;5183;51.190;6.820;2023-02-26T15:10:27;7.10;1.00
10276;DHT22;5183;51.190;6.820;2023-02-26T15:13:16;7.30;1.00
10276;DHT22;5183;51.190;6.820;2023-02-26T15:15:52;7.30;1.00
10276;DHT22;5183;51.190;6.820;2023-02-26T15:18:44;7.10;1.00
10276;DHT22;5183;51.190;6.820;2023-02-26T15:21:21;7.10;1.00
10276;DHT22;5183;51.190;6.820;2023-02-26T15:23:52;7.30;1.00
10276;DHT22;5183;51.190;6.820;2023-02-26T15:26:22;7.30;1.00
10276;DHT22;5183;51.190;6.820;2023-02-26T15:28:51;7.10;1.00
10276;DHT22;5183;51.190;6.820;2023-02-26T15:31:26;6.90;1.00
10276;DHT22;5183;51.190;6.820;2023-02-26T15:33:55;6.80;1.00
10276;DHT22;5183;51.190;6.820;2023-02-26T15:36:22;6.70;1.00
10276;DHT22;5183;51.190;6.820;2023-02-26T15:38:54;6.70;1.00
10276;DHT22;5183;51.190;6.820;2023-02-26T15:41:21;6.60;1.00
10276;DHT22;5183;51.190;6.820;2023-02-26T15:43:51;6.60;1.00
10276;DHT22;5183;51.190;6.820;2023-02-26T15:46:25;6.60;1.00
10276;DHT22;5183;51.190;6.820;2023-02-26T15:48:55;6.60;1.00
10276;DHT22;5183;51.190;6.820;2023-02-26T15:51:24;6.70;1.00
10276;DHT22;5183;51.190;6.820;2023-02-26T15:53:52;6.70;1.00
10276;DHT22;5183;51.190;6.820;2023-02-26T15:56:22;6.60;1.00
10276;DHT22;5183;51.190;6.820;2023-02-26T15:58:53;6.60;1.00
10276;DHT22;5183;51.190;6.820;2023-02-26T16:01:25;6.50;1.00
10276;DHT22;5183;51.190;6.820;2023-02-26T16:03:56;6.40;1.00
10276;DHT22;5183;51.190;6.820;2023-02-26T16:06:26;6.40;1.00
10276;DHT22;5183;51.190;6.820;2023-02-26T16:08:53;6.30;1.00
10276;DHT22;5183;51.190;6.820;2023-02-26T16:11:21;6.20;1.00
10276;DHT22;5183;51.190;6.820;2023-02-26T16:13:51;6.20;1.00
10276;DHT22;5183;51.190;6.820;2023-02-26T16:16:23;6.10;1.00
10276;DHT22;5183;51.190;6.820;2023-02-26T16:18:51;6.00;1.00
10276;DHT22;5183;51.190;6.820;2023-02-26T16:21:22;6.10;1.00
10276;DHT22;5183;51.190;6.820;2023-02-26T16:23:53;6.10;1.00
10276;DHT22;5183;51.190;6.820;2023-02-26T16:26:25;6.10;1.00
10276;DHT22;5183;51.190;6.820;2023-02-26T16:28:57;6.10;1.00
10276;DHT22;5183;51.190;6.820;2023-02-26T16:31:27;6.00;1.00
10276;DHT22;5183;51.190;6.820;2023-02-26T16:34:00;5.90;1.00
10276;DHT22;5183;51.190;6.820;2023-02-26T16:36:30;5.80;1.00
10276;DHT22;5183;51.190;6.820;2023-02-26T16:39:00;5.60;1.00
10276;DHT22;5183;51.190;6.820;2023-02-26T16:41:30;5.30;1.00
10276;DHT22;5183;51.190;6.820;2023-02-26T16:44:01;5.20;1.00
10276;DHT22;5183;51.190;6.820;2023-02-26T16:46:34;5.00;1.00
10276;DHT22;5183;51.190;6.820;2023-02-26T16:49:05;4.70;1.00
10276;DHT22;5183;51.190;6.820;2023-02-26T16:51:36;4.60;1.00
10276;DHT22;5183;51.190;6.820;2023-02-26T16:54:05;4.50;1.00
10276;DHT22;5183;51.190;6.820;2023-02-26T16:56:35;4.40;1.00
10276;DHT22;5183;51.190;6.820;2023-02-26T16:59:06;4.30;1.00
10276;DHT22;5183;51.190;6.820;2023-02-26T17:01:50;4.20;1.00
10276;DHT22;5183;51.190;6.820;2023-02-26T17:04:19;4.10;1.00
10276;DHT22;5183;51.190;6.820;2023-02-26T17:06:46;4.10;1.00